createdAt,value
2018-06-15T00:00:18.459Z,0
2018-06-15T00:01:21.514Z,0
2018-06-15T00:02:24.204Z,0
2018-06-15T00:03:26.797Z,0
2018-06-15T00:04:29.886Z,0
2018-06-15T00:05:32.389Z,0
2018-06-15T00:06:35.202Z,0
2018-06-15T00:07:37.270Z,0
2018-06-15T00:08:39.775Z,0
2018-06-15T00:09:42.157Z,0
2018-06-15T00:10:44.628Z,0
2018-06-15T00:11:47.857Z,0
2018-06-15T00:12:50.294Z,0
2018-06-15T00:13:53.392Z,0
2018-06-15T00:14:55.557Z,0
2018-06-15T00:15:58.461Z,0
2018-06-15T00:17:01.634Z,0
2018-06-15T00:18:03.993Z,0
2018-06-15T00:19:07.185Z,0
2018-06-15T00:20:09.727Z,0
2018-06-15T00:21:12.256Z,0
2018-06-15T00:22:15.403Z,0
2018-06-15T00:23:18.173Z,0
2018-06-15T00:24:22.152Z,0
2018-06-15T00:25:24.292Z,0
2018-06-15T00:26:27.310Z,0
2018-06-15T00:27:31.076Z,0
2018-06-15T00:28:33.731Z,0
2018-06-15T00:29:36.705Z,0
2018-06-15T00:30:39.986Z,0
2018-06-15T00:31:41.997Z,0
2018-06-15T00:32:44.173Z,0
2018-06-15T00:33:46.264Z,0
2018-06-15T00:34:48.337Z,0
2018-06-15T00:35:50.467Z,0
2018-06-15T00:36:52.531Z,0
2018-06-15T00:37:55.084Z,0
2018-06-15T00:38:57.120Z,0
2018-06-15T00:39:59.694Z,0
2018-06-15T00:41:02.011Z,0
2018-06-15T00:42:04.394Z,0
2018-06-15T00:43:06.527Z,0
2018-06-15T00:44:08.532Z,0
2018-06-15T00:45:10.573Z,0
2018-06-15T00:46:12.885Z,0
2018-06-15T00:47:14.999Z,0
2018-06-15T00:48:17.055Z,0
2018-06-15T00:49:19.088Z,0
2018-06-15T00:50:21.089Z,0
2018-06-15T00:51:23.363Z,0
2018-06-15T00:52:25.421Z,0
2018-06-15T00:53:27.480Z,0
2018-06-15T00:54:29.808Z,0
2018-06-15T00:55:31.823Z,0
2018-06-15T00:56:34.499Z,0
2018-06-15T00:57:36.496Z,0
2018-06-15T00:58:38.539Z,0
2018-06-15T00:59:40.557Z,0
2018-06-15T01:00:42.643Z,0
2018-06-15T01:01:44.907Z,0
2018-06-15T01:02:46.925Z,0
2018-06-15T01:03:49.213Z,0
2018-06-15T01:04:51.612Z,0
2018-06-15T01:05:53.901Z,0
2018-06-15T01:06:56.462Z,0
2018-06-15T01:07:58.838Z,0
2018-06-15T01:09:01.329Z,0
2018-06-15T01:10:04.183Z,0
2018-06-15T01:11:06.726Z,0
2018-06-15T01:12:09.751Z,0
2018-06-15T01:13:13.008Z,0
2018-06-15T01:14:15.362Z,0
2018-06-15T01:15:18.398Z,0
2018-06-15T01:16:21.974Z,0
2018-06-15T01:17:24.333Z,0
2018-06-15T01:18:27.876Z,0
2018-06-15T01:19:30.646Z,0
2018-06-15T01:20:33.951Z,0
2018-06-15T01:21:36.423Z,0
2018-06-15T01:22:38.616Z,0
2018-06-15T01:23:40.766Z,0
2018-06-15T01:24:44.611Z,0
2018-06-15T01:25:47.428Z,0
2018-06-15T01:26:49.524Z,0
2018-06-15T01:27:51.795Z,0
2018-06-15T01:28:53.900Z,0
2018-06-15T01:29:55.916Z,0
2018-06-15T01:30:58.495Z,0
2018-06-15T01:32:01.402Z,0
2018-06-15T01:33:04.233Z,0
2018-06-15T01:34:07.202Z,0
2018-06-15T01:35:09.999Z,0
2018-06-15T01:36:13.105Z,0
2018-06-15T01:37:15.505Z,0
2018-06-15T01:38:18.429Z,0
2018-06-15T01:39:20.865Z,0
2018-06-15T01:40:23.437Z,0
2018-06-15T01:41:26.388Z,0
2018-06-15T01:42:28.849Z,0
2018-06-15T01:43:31.223Z,0
2018-06-15T01:44:34.147Z,0
2018-06-15T01:45:36.793Z,0
2018-06-15T01:46:39.234Z,0
2018-06-15T01:47:42.034Z,0
2018-06-15T01:48:44.994Z,0
2018-06-15T01:49:47.514Z,0
2018-06-15T01:50:50.013Z,0
2018-06-15T01:51:52.838Z,0
2018-06-15T01:52:55.950Z,0
2018-06-15T01:53:58.569Z,0
2018-06-15T01:55:01.351Z,0
2018-06-15T01:56:03.807Z,0
2018-06-15T01:57:06.615Z,0
2018-06-15T01:58:08.613Z,0
2018-06-15T01:59:10.610Z,0
2018-06-15T02:00:12.615Z,0
2018-06-15T02:01:14.735Z,0
2018-06-15T02:02:16.611Z,0
2018-06-15T02:03:18.622Z,0
2018-06-15T02:04:20.623Z,0
2018-06-15T02:05:22.619Z,0
2018-06-15T02:06:24.637Z,0
2018-06-15T02:07:26.631Z,0
2018-06-15T02:08:28.678Z,0
2018-06-15T02:09:30.719Z,0
2018-06-15T02:10:32.732Z,0
2018-06-15T02:11:34.743Z,0
2018-06-15T02:12:37.034Z,0
2018-06-15T02:13:39.389Z,0
2018-06-15T02:14:41.616Z,0
2018-06-15T02:15:44.527Z,0
2018-06-15T02:16:47.413Z,0
2018-06-15T02:17:49.876Z,0
2018-06-15T02:18:52.252Z,0
2018-06-15T02:19:54.834Z,0
2018-06-15T02:20:57.349Z,0
2018-06-15T02:22:00.206Z,0
2018-06-15T02:23:02.971Z,0
2018-06-15T02:24:05.252Z,0
2018-06-15T02:25:07.259Z,0
2018-06-15T02:26:09.267Z,0
2018-06-15T02:27:11.276Z,0
2018-06-15T02:28:13.558Z,0
2018-06-15T02:29:15.838Z,0
2018-06-15T02:30:18.506Z,0
2018-06-15T02:31:20.516Z,0
2018-06-15T02:32:23.992Z,0
2018-06-15T02:33:27.842Z,0
2018-06-15T02:34:31.452Z,0
2018-06-15T02:35:35.264Z,0
2018-06-15T02:36:38.243Z,0
2018-06-15T02:37:41.998Z,0
2018-06-15T02:38:44.987Z,0
2018-06-15T02:39:47.300Z,0
2018-06-15T02:40:51.162Z,0
2018-06-15T02:41:55.243Z,0
2018-06-15T02:42:58.887Z,0
2018-06-15T02:44:01.466Z,0
2018-06-15T02:45:03.729Z,1
2018-06-15T02:46:06.758Z,1
2018-06-15T02:47:08.973Z,1
2018-06-15T02:48:13.022Z,1
2018-06-15T02:49:15.334Z,1
2018-06-15T02:50:17.986Z,1
2018-06-15T02:51:20.444Z,1
2018-06-15T02:52:22.970Z,1
2018-06-15T02:53:25.538Z,1
2018-06-15T02:54:27.836Z,1
2018-06-15T02:55:29.843Z,2
2018-06-15T02:56:31.851Z,2
2018-06-15T02:57:34.159Z,2
2018-06-15T02:58:36.582Z,2
2018-06-15T02:59:38.582Z,2
2018-06-15T03:00:40.579Z,2
2018-06-15T03:01:42.865Z,2
2018-06-15T03:02:45.187Z,2
2018-06-15T03:03:47.536Z,3
2018-06-15T03:04:50.090Z,3
2018-06-15T03:05:53.043Z,3
2018-06-15T03:06:56.059Z,3
2018-06-15T03:07:59.232Z,3
2018-06-15T03:09:02.588Z,4
2018-06-15T03:10:05.714Z,4
2018-06-15T03:11:07.737Z,4
2018-06-15T03:12:09.931Z,4
2018-06-15T03:13:12.025Z,4
2018-06-15T03:14:14.669Z,4
2018-06-15T03:15:17.304Z,4
2018-06-15T03:16:19.365Z,4
2018-06-15T03:17:21.694Z,4
2018-06-15T03:18:23.770Z,4
2018-06-15T03:19:25.818Z,4
2018-06-15T03:20:27.941Z,4
2018-06-15T03:21:30.313Z,4
2018-06-15T03:22:32.346Z,5
2018-06-15T03:23:34.364Z,4
2018-06-15T03:24:36.480Z,5
2018-06-15T03:25:38.563Z,6
2018-06-15T03:26:40.623Z,6
2018-06-15T03:27:42.980Z,7
2018-06-15T03:28:45.106Z,7
2018-06-15T03:29:47.159Z,7
2018-06-15T03:30:49.629Z,8
2018-06-15T03:31:52.205Z,8
2018-06-15T03:32:54.318Z,8
2018-06-15T03:33:56.349Z,8
2018-06-15T03:34:58.357Z,8
2018-06-15T03:36:00.635Z,8
2018-06-15T03:37:03.043Z,8
2018-06-15T03:38:05.049Z,8
2018-06-15T03:39:07.050Z,7
2018-06-15T03:40:09.331Z,7
2018-06-15T03:41:11.355Z,7
2018-06-15T03:42:13.348Z,6
2018-06-15T03:43:15.636Z,6
2018-06-15T03:44:17.873Z,7
2018-06-15T03:45:19.863Z,6
2018-06-15T03:46:21.916Z,6
2018-06-15T03:47:25.440Z,6
2018-06-15T03:48:27.644Z,6
2018-06-15T03:49:30.033Z,7
2018-06-15T03:50:32.041Z,7
2018-06-15T03:51:34.049Z,7
2018-06-15T03:52:36.130Z,7
2018-06-15T03:53:38.128Z,7
2018-06-15T03:54:40.294Z,7
2018-06-15T03:55:42.311Z,7
2018-06-15T03:56:44.359Z,6
2018-06-15T03:57:46.370Z,6
2018-06-15T03:58:48.804Z,6
2018-06-15T03:59:50.780Z,7
2018-06-15T04:00:52.776Z,8
2018-06-15T04:01:54.776Z,8
2018-06-15T04:02:56.783Z,8
2018-06-15T04:03:58.794Z,7
2018-06-15T04:05:01.200Z,6
2018-06-15T04:06:03.238Z,6
2018-06-15T04:07:05.272Z,7
2018-06-15T04:08:07.313Z,8
2018-06-15T04:09:09.327Z,9
2018-06-15T04:10:11.328Z,9
2018-06-15T04:11:13.685Z,9
2018-06-15T04:12:15.960Z,8
2018-06-15T04:13:18.026Z,8
2018-06-15T04:14:21.143Z,10
2018-06-15T04:15:23.533Z,12
2018-06-15T04:16:26.260Z,13
2018-06-15T04:17:28.267Z,14
2018-06-15T04:18:30.667Z,14
2018-06-15T04:19:32.716Z,15
2018-06-15T04:20:34.790Z,15
2018-06-15T04:21:36.945Z,15
2018-06-15T04:22:38.953Z,15
2018-06-15T04:23:41.047Z,14
2018-06-15T04:24:43.416Z,14
2018-06-15T04:25:45.462Z,15
2018-06-15T04:26:48.182Z,17
2018-06-15T04:27:50.236Z,16
2018-06-15T04:28:53.129Z,17
2018-06-15T04:29:55.143Z,17
2018-06-15T04:30:57.226Z,17
2018-06-15T04:31:59.766Z,17
2018-06-15T04:33:02.103Z,18
2018-06-15T04:34:04.528Z,19
2018-06-15T04:35:07.105Z,20
2018-06-15T04:36:09.527Z,20
2018-06-15T04:37:12.035Z,21
2018-06-15T04:38:14.776Z,21
2018-06-15T04:39:17.424Z,21
2018-06-15T04:40:20.798Z,21
2018-06-15T04:41:23.012Z,22
2018-06-15T04:42:25.576Z,22
2018-06-15T04:43:28.299Z,22
2018-06-15T04:44:30.367Z,22
2018-06-15T04:45:32.628Z,23
2018-06-15T04:46:34.772Z,24
2018-06-15T04:47:36.923Z,25
2018-06-15T04:48:39.037Z,25
2018-06-15T04:49:41.319Z,24
2018-06-15T04:50:43.443Z,24
2018-06-15T04:51:45.793Z,23
2018-06-15T04:52:48.277Z,22
2018-06-15T04:53:50.380Z,21
2018-06-15T04:54:52.387Z,19
2018-06-15T04:55:54.388Z,19
2018-06-15T04:56:56.382Z,20
2018-06-15T04:57:58.534Z,20
2018-06-15T04:59:00.585Z,20
2018-06-15T05:00:02.592Z,19
2018-06-15T05:01:04.988Z,20
2018-06-15T05:02:07.023Z,22
2018-06-15T05:03:09.360Z,23
2018-06-15T05:04:11.406Z,23
2018-06-15T05:05:13.434Z,23
2018-06-15T05:06:15.437Z,24
2018-06-15T05:07:17.506Z,23
2018-06-15T05:08:19.519Z,24
2018-06-15T05:09:22.157Z,25
2018-06-15T05:10:25.209Z,26
2018-06-15T05:11:27.945Z,26
2018-06-15T05:12:30.170Z,26
2018-06-15T05:13:32.930Z,25
2018-06-15T05:14:35.767Z,24
2018-06-15T05:15:38.235Z,23
2018-06-15T05:16:40.524Z,23
2018-06-15T05:17:42.541Z,24
2018-06-15T05:18:45.475Z,25
2018-06-15T05:19:48.925Z,27
2018-06-15T05:20:51.056Z,28
2018-06-15T05:21:54.691Z,30
2018-06-15T05:22:57.737Z,30
2018-06-15T05:24:00.222Z,32
2018-06-15T05:25:02.222Z,35
2018-06-15T05:26:04.223Z,36
2018-06-15T05:27:06.227Z,35
2018-06-15T05:28:08.246Z,33
2018-06-15T05:29:10.238Z,34
2018-06-15T05:30:12.624Z,38
2018-06-15T05:31:14.619Z,44
2018-06-15T05:32:16.635Z,48
2018-06-15T05:33:18.638Z,49
2018-06-15T05:34:21.311Z,49
2018-06-15T05:35:23.406Z,48
2018-06-15T05:36:25.621Z,48
2018-06-15T05:37:27.610Z,49
2018-06-15T05:38:29.999Z,50
2018-06-15T05:39:31.990Z,52
2018-06-15T05:40:34.375Z,54
2018-06-15T05:41:36.389Z,57
2018-06-15T05:42:38.431Z,58
2018-06-15T05:43:40.397Z,57
2018-06-15T05:44:42.405Z,58
2018-06-15T05:45:44.408Z,57
2018-06-15T05:46:46.414Z,56
2018-06-15T05:47:48.794Z,56
2018-06-15T05:48:50.807Z,58
2018-06-15T05:49:53.223Z,58
2018-06-15T05:50:55.522Z,58
2018-06-15T05:51:57.518Z,64
2018-06-15T05:52:59.909Z,68
2018-06-15T05:54:02.195Z,68
2018-06-15T05:55:04.210Z,68
2018-06-15T05:56:06.515Z,61
2018-06-15T05:57:08.514Z,58
2018-06-15T05:58:10.514Z,56
2018-06-15T05:59:12.514Z,55
2018-06-15T06:00:14.516Z,54
2018-06-15T06:01:16.818Z,54
2018-06-15T06:02:18.817Z,55
2018-06-15T06:03:20.847Z,56
2018-06-15T06:04:23.179Z,61
2018-06-15T06:05:25.181Z,66
2018-06-15T06:06:27.184Z,69
2018-06-15T06:07:29.184Z,69
2018-06-15T06:08:31.467Z,69
2018-06-15T06:09:33.788Z,69
2018-06-15T06:10:35.786Z,68
2018-06-15T06:11:38.091Z,64
2018-06-15T06:12:40.112Z,62
2018-06-15T06:13:42.108Z,64
2018-06-15T06:14:44.131Z,66
2018-06-15T06:15:46.127Z,68
2018-06-15T06:16:48.132Z,70
2018-06-15T06:17:50.411Z,72
2018-06-15T06:18:52.412Z,74
2018-06-15T06:19:54.410Z,74
2018-06-15T06:20:56.417Z,74
2018-06-15T06:21:58.426Z,75
2018-06-15T06:23:00.434Z,75
2018-06-15T06:24:02.430Z,74
2018-06-15T06:25:04.715Z,71
2018-06-15T06:26:07.000Z,69
2018-06-15T06:27:09.001Z,69
2018-06-15T06:28:11.004Z,70
2018-06-15T06:29:13.015Z,71
2018-06-15T06:30:15.016Z,75
2018-06-15T06:31:17.014Z,79
2018-06-15T06:32:19.019Z,78
2018-06-15T06:33:21.019Z,74
2018-06-15T06:34:23.027Z,71
2018-06-15T06:35:25.035Z,67
2018-06-15T06:36:27.042Z,67
2018-06-15T06:37:29.042Z,71
2018-06-15T06:38:31.045Z,73
2018-06-15T06:39:33.052Z,73
2018-06-15T06:40:35.058Z,75
2018-06-15T06:41:37.058Z,80
2018-06-15T06:42:39.062Z,84
2018-06-15T06:43:41.448Z,86
2018-06-15T06:44:43.733Z,86
2018-06-15T06:45:45.727Z,85
2018-06-15T06:46:47.725Z,82
2018-06-15T06:47:49.728Z,80
2018-06-15T06:48:51.745Z,77
2018-06-15T06:49:53.745Z,76
2018-06-15T06:50:55.751Z,78
2018-06-15T06:51:57.749Z,78
2018-06-15T06:52:59.764Z,82
2018-06-15T06:54:01.772Z,80
2018-06-15T06:55:04.043Z,78
2018-06-15T06:56:06.054Z,73
2018-06-15T06:57:08.050Z,67
2018-06-15T06:58:10.053Z,65
2018-06-15T06:59:12.053Z,65
2018-06-15T07:00:14.055Z,63
2018-06-15T07:01:16.060Z,62
2018-06-15T07:02:18.075Z,60
2018-06-15T07:03:20.068Z,58
2018-06-15T07:04:22.378Z,55
2018-06-15T07:05:24.383Z,57
2018-06-15T07:06:26.389Z,58
2018-06-15T07:07:28.389Z,57
2018-06-15T07:08:30.388Z,55
2018-06-15T07:09:32.397Z,55
2018-06-15T07:10:34.404Z,55
2018-06-15T07:11:36.684Z,55
2018-06-15T07:12:38.693Z,58
2018-06-15T07:13:40.696Z,59
2018-06-15T07:14:42.699Z,60
2018-06-15T07:15:44.701Z,61
2018-06-15T07:16:46.704Z,62
2018-06-15T07:17:48.707Z,63
2018-06-15T07:18:51.084Z,65
2018-06-15T07:19:53.086Z,67
2018-06-15T07:20:55.093Z,67
2018-06-15T07:21:57.093Z,69
2018-06-15T07:22:59.094Z,69
2018-06-15T07:24:01.102Z,72
2018-06-15T07:25:03.381Z,74
2018-06-15T07:26:05.659Z,81
2018-06-15T07:27:07.673Z,78
2018-06-15T07:28:09.665Z,81
2018-06-15T07:29:11.670Z,81
2018-06-15T07:30:13.677Z,80
2018-06-15T07:31:16.063Z,82
2018-06-15T07:32:18.355Z,78
2018-06-15T07:33:20.658Z,78
2018-06-15T07:34:22.641Z,85
2018-06-15T07:35:24.635Z,83
2018-06-15T07:36:26.638Z,82
2018-06-15T07:37:28.660Z,78
2018-06-15T07:38:31.045Z,78
2018-06-15T07:39:33.049Z,78
2018-06-15T07:40:35.444Z,78
2018-06-15T07:41:37.454Z,80
2018-06-15T07:42:39.471Z,84
2018-06-15T07:43:41.464Z,90
2018-06-15T07:44:43.755Z,94
2018-06-15T07:45:45.756Z,92
2018-06-15T07:46:47.752Z,87
2018-06-15T07:47:49.757Z,85
2018-06-15T07:48:51.759Z,82
2018-06-15T07:49:54.332Z,79
2018-06-15T07:50:56.334Z,81
2018-06-15T07:51:58.337Z,79
2018-06-15T07:53:00.334Z,76
2018-06-15T07:54:02.334Z,78
2018-06-15T07:55:04.623Z,79
2018-06-15T07:56:06.623Z,81
2018-06-15T07:57:08.643Z,85
2018-06-15T07:58:10.938Z,83
2018-06-15T07:59:12.934Z,88
2018-06-15T08:00:14.943Z,99
2018-06-15T08:01:16.952Z,102
2018-06-15T08:02:18.952Z,97
2018-06-15T08:03:20.961Z,99
2018-06-15T08:04:23.019Z,99
2018-06-15T08:05:25.309Z,96
2018-06-15T08:06:27.590Z,89
2018-06-15T08:07:29.599Z,83
2018-06-15T08:08:31.616Z,83
2018-06-15T08:09:33.621Z,88
2018-06-15T08:10:35.611Z,93
2018-06-15T08:11:37.617Z,94
2018-06-15T08:12:39.635Z,95
2018-06-15T08:13:41.639Z,93
2018-06-15T08:14:43.639Z,88
2018-06-15T08:15:45.652Z,72
2018-06-15T08:16:48.243Z,67
2018-06-15T08:17:50.245Z,68
2018-06-15T08:18:52.245Z,69
2018-06-15T08:19:54.257Z,73
2018-06-15T08:20:56.261Z,72
2018-06-15T08:21:58.268Z,76
2018-06-15T08:23:00.278Z,83
2018-06-15T08:24:02.277Z,96
2018-06-15T08:25:04.292Z,102
2018-06-15T08:26:06.292Z,106
2018-06-15T08:27:08.299Z,113
2018-06-15T08:28:10.298Z,118
2018-06-15T08:29:12.300Z,130
2018-06-15T08:30:14.299Z,143
2018-06-15T08:31:16.307Z,160
2018-06-15T08:32:18.627Z,135
2018-06-15T08:33:20.632Z,127
2018-06-15T08:34:22.634Z,97
2018-06-15T08:35:25.018Z,92
2018-06-15T08:36:27.022Z,85
2018-06-15T08:37:29.025Z,75
2018-06-15T08:38:31.027Z,74
2018-06-15T08:39:33.331Z,76
2018-06-15T08:40:35.331Z,78
2018-06-15T08:41:37.715Z,84
2018-06-15T08:42:40.107Z,88
2018-06-15T08:43:42.406Z,87
2018-06-15T08:44:45.284Z,86
2018-06-15T08:45:47.287Z,93
2018-06-15T08:46:49.569Z,302
2018-06-15T08:47:51.580Z,331
2018-06-15T08:48:53.594Z,138
2018-06-15T08:49:55.881Z,137
2018-06-15T08:50:57.888Z,209
2018-06-15T08:51:59.901Z,187
2018-06-15T08:53:01.912Z,306
2018-06-15T08:54:04.200Z,318
2018-06-15T08:55:06.207Z,291
2018-06-15T08:56:08.216Z,372
2018-06-15T08:57:10.236Z,350
2018-06-15T08:58:12.232Z,320
2018-06-15T08:59:14.236Z,346
2018-06-15T09:00:16.259Z,366
2018-06-15T09:01:18.541Z,388
2018-06-15T09:02:20.836Z,409
2018-06-15T09:03:22.850Z,265
2018-06-15T09:04:24.849Z,362
2018-06-15T09:05:26.858Z,363
2018-06-15T09:06:28.850Z,121
2018-06-15T09:07:30.888Z,151
2018-06-15T09:08:32.892Z,127
2018-06-15T09:09:34.905Z,146
2018-06-15T09:10:36.909Z,130
2018-06-15T09:11:38.922Z,484
2018-06-15T09:12:40.970Z,481
2018-06-15T09:13:43.268Z,507
2018-06-15T09:14:45.263Z,216
2018-06-15T09:15:47.554Z,452
2018-06-15T09:16:49.565Z,162
2018-06-15T09:17:51.617Z,111
2018-06-15T09:18:53.625Z,137
2018-06-15T09:19:56.026Z,397
2018-06-15T09:20:58.034Z,312
2018-06-15T09:22:00.053Z,439
2018-06-15T09:23:02.053Z,503
2018-06-15T09:24:04.352Z,190
2018-06-15T09:25:06.381Z,486
2018-06-15T09:26:08.383Z,109
2018-06-15T09:27:10.674Z,90
2018-06-15T09:28:12.690Z,87
2018-06-15T09:29:14.699Z,89
2018-06-15T09:30:16.732Z,99
2018-06-15T09:31:18.760Z,106
2018-06-15T09:32:20.740Z,368
2018-06-15T09:33:23.065Z,118
2018-06-15T09:34:25.365Z,450
2018-06-15T09:35:27.800Z,458
2018-06-15T09:36:30.060Z,479
2018-06-15T09:37:32.100Z,526
2018-06-15T09:38:34.152Z,508
2018-06-15T09:39:36.153Z,460
2018-06-15T09:40:38.267Z,464
2018-06-15T09:41:40.304Z,500
2018-06-15T09:42:42.346Z,129
2018-06-15T09:43:44.809Z,116
2018-06-15T09:44:46.824Z,106
2018-06-15T09:45:49.190Z,104
2018-06-15T09:46:51.239Z,98
2018-06-15T09:47:53.616Z,102
2018-06-15T09:48:55.667Z,105
2018-06-15T09:49:58.351Z,101
2018-06-15T09:51:00.713Z,98
2018-06-15T09:52:02.729Z,99
2018-06-15T09:53:04.851Z,106
2018-06-15T09:54:06.852Z,111
2018-06-15T09:55:08.929Z,169
2018-06-15T09:56:11.005Z,274
2018-06-15T09:57:13.052Z,432
2018-06-15T09:58:15.337Z,442
2018-06-15T09:59:17.356Z,505
2018-06-15T10:00:19.385Z,538
2018-06-15T10:01:21.396Z,289
2018-06-15T10:02:23.399Z,261
2018-06-15T10:03:25.429Z,378
2018-06-15T10:04:27.737Z,148
2018-06-15T10:05:29.763Z,120
2018-06-15T10:06:31.867Z,114
2018-06-15T10:07:33.876Z,104
2018-06-15T10:08:35.885Z,103
2018-06-15T10:09:37.899Z,105
2018-06-15T10:10:39.906Z,102
2018-06-15T10:11:42.230Z,91
2018-06-15T10:12:44.247Z,90
2018-06-15T10:13:46.656Z,103
2018-06-15T10:14:48.659Z,118
2018-06-15T10:15:51.054Z,135
2018-06-15T10:16:53.070Z,188
2018-06-15T10:17:55.076Z,535
2018-06-15T10:18:57.207Z,519
2018-06-15T10:19:59.217Z,523
2018-06-15T10:21:01.297Z,547
2018-06-15T10:22:03.366Z,535
2018-06-15T10:23:05.374Z,160
2018-06-15T10:24:07.567Z,297
2018-06-15T10:25:09.668Z,144
2018-06-15T10:26:11.678Z,113
2018-06-15T10:27:14.457Z,110
2018-06-15T10:28:16.451Z,111
2018-06-15T10:29:18.461Z,130
2018-06-15T10:30:20.850Z,136
2018-06-15T10:31:22.862Z,122
2018-06-15T10:32:24.867Z,150
2018-06-15T10:33:26.880Z,496
2018-06-15T10:34:28.891Z,314
2018-06-15T10:35:30.908Z,158
2018-06-15T10:36:32.918Z,521
2018-06-15T10:37:34.915Z,554
2018-06-15T10:38:36.926Z,544
2018-06-15T10:39:39.002Z,593
2018-06-15T10:40:40.943Z,607
2018-06-15T10:41:42.952Z,220
2018-06-15T10:42:44.958Z,560
2018-06-15T10:43:46.967Z,581
2018-06-15T10:44:48.975Z,414
2018-06-15T10:45:51.295Z,526
2018-06-15T10:46:53.308Z,188
2018-06-15T10:47:55.328Z,118
2018-06-15T10:48:57.335Z,120
2018-06-15T10:49:59.631Z,130
2018-06-15T10:51:01.640Z,148
2018-06-15T10:52:03.934Z,190
2018-06-15T10:53:05.952Z,159
2018-06-15T10:54:07.974Z,334
2018-06-15T10:55:09.982Z,168
2018-06-15T10:56:12.448Z,317
2018-06-15T10:57:14.394Z,172
2018-06-15T10:58:16.406Z,205
2018-06-15T10:59:18.421Z,396
2018-06-15T11:00:20.434Z,551
2018-06-15T11:01:22.732Z,545
2018-06-15T11:02:25.204Z,224
2018-06-15T11:03:27.159Z,243
2018-06-15T11:04:29.450Z,596
2018-06-15T11:05:31.470Z,587
2018-06-15T11:06:33.480Z,619
2018-06-15T11:07:35.496Z,469
2018-06-15T11:08:37.512Z,261
2018-06-15T11:09:39.524Z,221
2018-06-15T11:10:41.529Z,215
2018-06-15T11:11:43.838Z,565
2018-06-15T11:12:46.167Z,162
2018-06-15T11:13:48.182Z,158
2018-06-15T11:14:50.198Z,230
2018-06-15T11:15:52.213Z,611
2018-06-15T11:16:54.503Z,179
2018-06-15T11:17:56.525Z,173
2018-06-15T11:18:58.537Z,508
2018-06-15T11:20:00.815Z,630
2018-06-15T11:21:03.777Z,659
2018-06-15T11:22:05.801Z,173
2018-06-15T11:23:07.813Z,138
2018-06-15T11:24:10.383Z,123
2018-06-15T11:25:12.416Z,123
2018-06-15T11:26:14.427Z,125
2018-06-15T11:27:16.438Z,122
2018-06-15T11:28:18.444Z,129
2018-06-15T11:29:20.467Z,153
2018-06-15T11:30:22.482Z,186
2018-06-15T11:31:24.497Z,342
2018-06-15T11:32:26.505Z,198
2018-06-15T11:33:29.203Z,218
2018-06-15T11:34:31.222Z,311
2018-06-15T11:35:33.894Z,281
2018-06-15T11:36:35.911Z,386
2018-06-15T11:37:37.921Z,223
2018-06-15T11:38:39.926Z,232
2018-06-15T11:39:41.937Z,251
2018-06-15T11:40:43.951Z,564
2018-06-15T11:41:45.973Z,366
2018-06-15T11:42:47.988Z,557
2018-06-15T11:43:50.280Z,486
2018-06-15T11:44:52.300Z,298
2018-06-15T11:45:54.316Z,222
2018-06-15T11:46:56.331Z,267
2018-06-15T11:47:58.341Z,172
2018-06-15T11:49:00.745Z,164
2018-06-15T11:50:02.758Z,303
2018-06-15T11:51:04.752Z,524
2018-06-15T11:52:06.767Z,517
2018-06-15T11:53:09.169Z,579
2018-06-15T11:54:11.181Z,601
2018-06-15T11:55:13.198Z,605
2018-06-15T11:56:15.209Z,632
2018-06-15T11:57:17.503Z,584
2018-06-15T11:58:19.521Z,520
2018-06-15T11:59:21.535Z,493
2018-06-15T12:00:23.546Z,544
2018-06-15T12:01:25.562Z,593
2018-06-15T12:02:27.587Z,215
2018-06-15T12:03:29.604Z,148
2018-06-15T12:04:31.623Z,419
2018-06-15T12:05:33.643Z,431
2018-06-15T12:06:35.663Z,475
2018-06-15T12:07:38.265Z,251
2018-06-15T12:08:40.276Z,272
2018-06-15T12:09:42.298Z,233
2018-06-15T12:10:44.319Z,198
2018-06-15T12:11:46.324Z,161
2018-06-15T12:12:48.339Z,155
2018-06-15T12:13:50.349Z,153
2018-06-15T12:14:52.360Z,154
2018-06-15T12:15:54.375Z,224
2018-06-15T12:16:56.395Z,578
2018-06-15T12:17:58.415Z,423
2018-06-15T12:19:00.431Z,573
2018-06-15T12:20:02.740Z,590
2018-06-15T12:21:04.750Z,624
2018-06-15T12:22:06.764Z,641
2018-06-15T12:23:08.782Z,611
2018-06-15T12:24:10.792Z,591
2018-06-15T12:25:13.194Z,588
2018-06-15T12:26:15.591Z,158
2018-06-15T12:27:17.611Z,154
2018-06-15T12:28:19.921Z,154
2018-06-15T12:29:22.322Z,154
2018-06-15T12:30:24.371Z,166
2018-06-15T12:31:26.348Z,536
2018-06-15T12:32:28.749Z,602
2018-06-15T12:33:30.779Z,433
2018-06-15T12:34:32.803Z,277
2018-06-15T12:35:35.094Z,472
2018-06-15T12:36:37.109Z,202
2018-06-15T12:37:39.120Z,256
2018-06-15T12:38:41.416Z,516
2018-06-15T12:39:43.431Z,537
2018-06-15T12:40:45.443Z,527
2018-06-15T12:41:47.460Z,291
2018-06-15T12:42:49.490Z,201
2018-06-15T12:43:51.503Z,177
2018-06-15T12:44:53.517Z,489
2018-06-15T12:45:56.148Z,166
2018-06-15T12:46:58.108Z,143
2018-06-15T12:48:00.127Z,128
2018-06-15T12:49:02.427Z,130
2018-06-15T12:50:04.739Z,130
2018-06-15T12:51:06.757Z,132
2018-06-15T12:52:08.765Z,132
2018-06-15T12:53:10.788Z,131
2018-06-15T12:54:12.804Z,131
2018-06-15T12:55:14.817Z,131
2018-06-15T12:56:16.836Z,133
2018-06-15T12:57:18.846Z,135
2018-06-15T12:58:20.867Z,145
2018-06-15T12:59:22.877Z,468
2018-06-15T13:00:24.891Z,172
2018-06-15T13:01:27.198Z,375
2018-06-15T13:02:29.596Z,369
2018-06-15T13:03:31.887Z,366
2018-06-15T13:04:34.198Z,260
2018-06-15T13:05:36.210Z,158
2018-06-15T13:06:38.226Z,147
2018-06-15T13:07:40.631Z,138
2018-06-15T13:08:42.644Z,131
2018-06-15T13:09:44.662Z,129
2018-06-15T13:10:46.677Z,131
2018-06-15T13:11:48.967Z,135
2018-06-15T13:12:51.379Z,141
2018-06-15T13:13:53.401Z,146
2018-06-15T13:14:55.425Z,149
2018-06-15T13:15:57.818Z,153
2018-06-15T13:16:59.838Z,156
2018-06-15T13:18:02.822Z,161
2018-06-15T13:19:04.841Z,180
2018-06-15T13:20:06.864Z,187
2018-06-15T13:21:08.870Z,217
2018-06-15T13:22:10.890Z,280
2018-06-15T13:23:12.907Z,200
2018-06-15T13:24:16.004Z,169
2018-06-15T13:25:18.303Z,149
2018-06-15T13:26:20.324Z,131
2018-06-15T13:27:22.901Z,124
2018-06-15T13:28:24.910Z,121
2018-06-15T13:29:26.921Z,125
2018-06-15T13:30:29.332Z,201
2018-06-15T13:31:31.629Z,382
2018-06-15T13:32:33.797Z,423
2018-06-15T13:33:35.865Z,450
2018-06-15T13:34:39.473Z,451
2018-06-15T13:35:41.703Z,473
2018-06-15T13:36:45.703Z,432
2018-06-15T13:37:50.180Z,444
2018-06-15T13:38:53.139Z,452
2018-06-15T13:39:55.497Z,135
2018-06-15T13:41:01.580Z,125
2018-06-15T13:42:03.593Z,115
2018-06-15T13:43:05.608Z,112
2018-06-15T13:44:07.627Z,109
2018-06-15T13:45:09.650Z,106
2018-06-15T13:46:11.957Z,103
2018-06-15T13:47:13.971Z,98
2018-06-15T13:48:15.991Z,91
2018-06-15T13:49:18.761Z,84
2018-06-15T13:50:20.795Z,84
2018-06-15T13:51:22.818Z,86
2018-06-15T13:52:24.841Z,89
2018-06-15T13:53:26.860Z,92
2018-06-15T13:54:28.880Z,93
2018-06-15T13:55:30.903Z,97
2018-06-15T13:56:32.906Z,101
2018-06-15T13:57:34.923Z,102
2018-06-15T13:58:36.937Z,102
2018-06-15T13:59:38.953Z,148
2018-06-15T14:00:40.968Z,217
2018-06-15T14:01:42.988Z,393
2018-06-15T14:02:45.389Z,369
2018-06-15T14:03:47.412Z,378
2018-06-15T14:04:49.430Z,387
2018-06-15T14:05:51.731Z,414
2018-06-15T14:06:53.753Z,410
2018-06-15T14:07:55.767Z,387
2018-06-15T14:08:57.778Z,364
2018-06-15T14:09:59.807Z,389
2018-06-15T14:11:01.824Z,285
2018-06-15T14:12:03.851Z,268
2018-06-15T14:13:05.865Z,156
2018-06-15T14:14:07.892Z,136
2018-06-15T14:15:10.179Z,129
2018-06-15T14:16:12.216Z,130
2018-06-15T14:17:14.245Z,175
2018-06-15T14:18:16.549Z,202
2018-06-15T14:19:18.580Z,134
2018-06-15T14:20:20.608Z,121
2018-06-15T14:21:22.683Z,120
2018-06-15T14:22:24.989Z,121
2018-06-15T14:23:27.004Z,158
2018-06-15T14:24:29.025Z,162
2018-06-15T14:25:31.044Z,360
2018-06-15T14:26:33.065Z,372
2018-06-15T14:27:35.085Z,272
2018-06-15T14:28:37.099Z,247
2018-06-15T14:29:39.128Z,172
2018-06-15T14:30:41.436Z,139
2018-06-15T14:31:43.731Z,120
2018-06-15T14:32:45.807Z,112
2018-06-15T14:33:48.156Z,103
2018-06-15T14:34:50.180Z,100
2018-06-15T14:35:52.785Z,102
2018-06-15T14:36:54.799Z,133
2018-06-15T14:37:57.122Z,121
2018-06-15T14:38:59.148Z,119
2018-06-15T14:40:01.164Z,362
2018-06-15T14:41:03.179Z,395
2018-06-15T14:42:05.480Z,401
2018-06-15T14:43:07.495Z,392
2018-06-15T14:44:09.514Z,154